createdAt,value
2023-03-01T08:25:40.726Z,5.17
2023-03-01T08:28:07.292Z,5.30
2023-03-01T08:30:35.210Z,5.00
2023-03-01T08:33:01.906Z,5.20
2023-03-01T08:35:28.541Z,4.87
2023-03-01T08:37:55.126Z,5.67
2023-03-01T08:40:21.695Z,5.23
2023-03-01T08:42:48.333Z,5.43
2023-03-01T08:45:19.046Z,5.27
2023-03-01T08:47:46.243Z,4.70
2023-03-01T08:50:13.051Z,5.50
2023-03-01T08:52:39.725Z,4.47
2023-03-01T08:55:06.922Z,4.80
2023-03-01T08:57:33.500Z,4.70
2023-03-01T09:00:00.113Z,4.93
2023-03-01T09:02:26.792Z,4.77
2023-03-01T09:04:53.410Z,3.77
2023-03-01T09:07:19.947Z,4.23
2023-03-01T09:09:46.563Z,4.10
2023-03-01T09:12:13.811Z,4.30
2023-03-01T09:14:42.094Z,4.03
2023-03-01T09:17:08.731Z,3.67
2023-03-01T09:19:35.456Z,3.60
2023-03-01T09:22:03.544Z,3.90
2023-03-01T09:24:30.153Z,3.73
2023-03-01T09:26:57.556Z,4.00
2023-03-01T09:29:24.663Z,3.50
2023-03-01T09:31:51.301Z,3.50
2023-03-01T09:34:23.559Z,3.27
2023-03-01T09:36:51.398Z,3.10
2023-03-01T09:39:19.005Z,3.22
2023-03-01T09:41:58.741Z,3.00
2023-03-01T09:44:35.399Z,3.13
2023-03-01T09:47:02.852Z,2.77
2023-03-01T09:49:32.754Z,2.70
2023-03-01T09:52:23.118Z,2.87
2023-03-01T09:54:54.859Z,2.30
2023-03-01T09:57:50.417Z,2.50
2023-03-01T10:00:25.383Z,2.57
2023-03-01T10:03:03.544Z,2.70
2023-03-01T10:06:00.237Z,2.67
2023-03-01T10:08:38.679Z,2.53
2023-03-01T10:11:21.673Z,2.50
2023-03-01T10:13:54.655Z,2.47
2023-03-01T10:16:46.194Z,2.63
2023-03-01T10:19:22.149Z,2.57
2023-03-01T10:21:51.759Z,2.33
2023-03-01T10:24:22.426Z,2.00
2023-03-01T10:27:03.125Z,2.17
2023-03-01T10:29:41.648Z,2.20
2023-03-01T10:32:10.725Z,2.37
2023-03-01T10:34:37.935Z,2.00
2023-03-01T10:37:15.834Z,2.23
2023-03-01T10:40:10.187Z,2.40
2023-03-01T10:42:40.393Z,2.70
2023-03-01T10:45:31.320Z,2.10
2023-03-01T10:48:18.825Z,1.97
2023-03-01T10:50:47.829Z,2.57
2023-03-01T10:53:42.345Z,2.00
2023-03-01T10:56:11.411Z,2.30
2023-03-01T10:58:40.058Z,2.63
2023-03-01T11:01:17.089Z,2.50
2023-03-01T11:03:43.716Z,2.20
2023-03-01T11:06:13.214Z,2.10
2023-03-01T11:08:42.715Z,2.33
2023-03-01T11:11:32.976Z,2.20
2023-03-01T11:14:25.976Z,1.97
2023-03-01T11:17:05.734Z,2.27
2023-03-01T11:19:33.160Z,1.80
2023-03-01T11:22:06.431Z,1.60
2023-03-01T11:24:39.260Z,2.00
2023-03-01T11:27:17.102Z,2.00
2023-03-01T11:29:49.041Z,2.37
2023-03-01T11:32:16.602Z,2.13
2023-03-01T11:35:03.100Z,1.87
2023-03-01T11:37:56.967Z,2.07
2023-03-01T11:40:33.701Z,1.80
2023-03-01T11:43:20.102Z,2.00
2023-03-01T11:46:18.675Z,1.90
2023-03-01T11:49:22.992Z,2.20
2023-03-01T11:52:11.026Z,2.33
2023-03-01T11:55:19.981Z,1.90
2023-03-01T11:58:09.818Z,1.97
2023-03-01T12:00:42.143Z,1.43
2023-03-01T12:03:41.486Z,1.80
2023-03-01T12:06:23.813Z,1.63
2023-03-01T12:09:23.858Z,1.70
2023-03-01T12:12:20.831Z,1.63
2023-03-01T12:15:07.078Z,2.20
2023-03-01T12:18:12.512Z,1.50
2023-03-01T12:20:54.442Z,1.87
2023-03-01T12:23:39.798Z,1.27
2023-03-01T12:26:36.319Z,1.67
2023-03-01T12:29:21.863Z,1.60
2023-03-01T12:32:11.057Z,1.50
2023-03-01T12:35:06.822Z,1.63
2023-03-01T12:37:53.807Z,1.70
2023-03-01T12:40:29.302Z,1.50
2023-03-01T12:43:13.124Z,1.50
2023-03-01T12:45:58.447Z,1.47
2023-03-01T12:48:36.971Z,1.43
2023-03-01T12:51:08.495Z,1.50
2023-03-01T12:53:51.340Z,1.73
2023-03-01T12:56:28.011Z,1.60
2023-03-01T12:59:22.222Z,1.40
2023-03-01T13:02:01.001Z,1.40
2023-03-01T13:04:49.534Z,1.40
2023-03-01T13:07:42.568Z,1.60
2023-03-01T13:10:32.528Z,1.50
2023-03-01T13:12:59.183Z,1.60
2023-03-01T13:15:37.047Z,1.70
2023-03-01T13:18:17.310Z,1.43
2023-03-01T13:20:43.826Z,1.37
2023-03-01T13:23:22.501Z,1.47
2023-03-01T13:26:04.218Z,1.40
2023-03-01T13:29:01.961Z,1.40
2023-03-01T13:31:28.535Z,1.30
2023-03-01T13:33:56.325Z,1.37
2023-03-01T13:36:28.797Z,1.50
2023-03-01T13:38:58.429Z,1.40
2023-03-01T13:41:40.200Z,1.43
2023-03-01T13:44:27.084Z,1.30
2023-03-01T13:46:58.150Z,1.37
2023-03-01T13:49:33.390Z,1.30
2023-03-01T13:52:26.395Z,1.37
2023-03-01T13:54:54.546Z,1.20
2023-03-01T13:57:25.787Z,1.53
2023-03-01T13:59:52.355Z,1.30
2023-03-01T14:02:18.930Z,1.20
2023-03-01T14:04:57.831Z,1.40
2023-03-01T14:07:25.594Z,1.20
2023-03-01T14:10:05.042Z,1.23
2023-03-01T14:13:11.329Z,2.00
2023-03-01T14:16:02.572Z,1.93
2023-03-01T14:18:39.875Z,1.60
2023-03-01T14:21:09.913Z,1.67
2023-03-01T14:23:42.987Z,1.70
2023-03-01T14:26:10.047Z,1.80
2023-03-01T14:28:39.878Z,1.40
2023-03-01T14:31:52.078Z,2.77
2023-03-01T14:34:22.426Z,1.30
2023-03-01T14:36:49.095Z,1.20
2023-03-01T14:39:36.064Z,1.40
2023-03-01T14:42:15.172Z,1.10
2023-03-01T14:44:48.540Z,1.10
2023-03-01T14:47:34.427Z,1.10
2023-03-01T14:50:16.737Z,1.35
2023-03-01T14:52:47.538Z,1.40
2023-03-01T14:55:19.238Z,1.20
2023-03-01T14:57:49.394Z,1.30
2023-03-01T15:00:20.829Z,1.00
2023-03-01T15:02:49.624Z,1.30
2023-03-01T15:05:19.135Z,1.20
2023-03-01T15:07:50.851Z,0.90
2023-03-01T15:10:38.032Z,1.00
2023-03-01T15:13:20.981Z,1.10
2023-03-01T15:15:48.863Z,1.00
2023-03-01T15:18:22.218Z,1.23
2023-03-01T15:20:50.274Z,1.07
2023-03-01T15:23:25.250Z,1.00
2023-03-01T15:25:59.754Z,1.00
2023-03-01T15:28:34.596Z,0.90
2023-03-01T15:31:24.159Z,1.30
2023-03-01T15:33:52.191Z,1.15
2023-03-01T15:36:40.326Z,1.10
2023-03-01T15:39:26.682Z,0.80
2023-03-01T15:41:53.239Z,1.20
2023-03-01T15:44:41.661Z,1.50
2023-03-01T15:47:30.884Z,1.20
2023-03-01T15:50:00.574Z,1.03
2023-03-01T15:52:42.031Z,1.30
2023-03-01T15:55:23.298Z,1.20
2023-03-01T15:57:51.192Z,0.80
2023-03-01T16:00:18.710Z,1.08
2023-03-01T16:02:45.716Z,1.50
2023-03-01T16:05:22.942Z,1.70
2023-03-01T16:07:50.055Z,1.50
2023-03-01T16:10:17.185Z,1.23
2023-03-01T16:12:43.770Z,1.40
2023-03-01T16:15:17.652Z,1.17
2023-03-01T16:17:44.242Z,1.47
2023-03-01T16:20:17.188Z,1.20
2023-03-01T16:22:47.084Z,1.30
2023-03-01T16:25:17.572Z,1.07
2023-03-01T16:27:45.641Z,1.10
2023-03-01T16:30:14.334Z,1.20
2023-03-01T16:32:42.425Z,1.33
2023-03-01T16:35:10.867Z,1.23
2023-03-01T16:37:38.145Z,0.90
2023-03-01T16:40:06.386Z,1.30
2023-03-01T16:42:37.701Z,1.10
2023-03-01T16:45:09.086Z,1.00
2023-03-01T16:47:40.500Z,1.17
2023-03-01T16:50:07.348Z,1.10
2023-03-01T16:52:34.910Z,1.00
2023-03-01T16:55:04.782Z,0.93
2023-03-01T16:57:31.725Z,1.10
2023-03-01T16:59:58.364Z,1.10
2023-03-01T17:02:24.965Z,0.90
2023-03-01T17:04:55.956Z,0.93
2023-03-01T17:07:23.138Z,1.10
2023-03-01T17:09:49.760Z,1.17
2023-03-01T17:12:16.848Z,0.90
2023-03-01T17:14:44.020Z,0.90
2023-03-01T17:17:11.720Z,0.90
2023-03-01T17:19:41.585Z,1.10
2023-03-01T17:22:08.740Z,1.10
2023-03-01T17:24:39.674Z,0.97
2023-03-01T17:27:07.425Z,1.10
2023-03-01T17:29:34.266Z,1.20
2023-03-01T17:32:01.626Z,1.00
2023-03-01T17:34:28.298Z,0.90
2023-03-01T17:36:54.904Z,1.10
2023-03-01T17:39:25.777Z,1.10
2023-03-01T17:41:53.080Z,0.93
2023-03-01T17:44:19.681Z,1.60
2023-03-01T17:46:46.572Z,1.17
2023-03-01T17:49:13.347Z,1.30
2023-03-01T17:51:40.011Z,0.80
2023-03-01T17:54:06.593Z,1.10
2023-03-01T17:56:33.901Z,1.00
2023-03-01T17:59:01.647Z,0.87
2023-03-01T18:01:28.285Z,0.90
2023-03-01T18:03:55.290Z,1.00
2023-03-01T18:06:24.186Z,1.07
2023-03-01T18:08:51.326Z,1.10
2023-03-01T18:11:18.897Z,1.03
2023-03-01T18:13:46.148Z,1.60
2023-03-01T18:16:15.563Z,0.90
2023-03-01T18:18:42.834Z,1.10
2023-03-01T18:21:09.432Z,1.50
2023-03-01T18:23:37.047Z,1.37
2023-03-01T18:26:06.961Z,1.30
2023-03-01T18:28:34.109Z,1.03
2023-03-01T18:31:03.951Z,1.10
2023-03-01T18:33:31.556Z,1.10
2023-03-01T18:35:58.234Z,1.20
2023-03-01T18:38:25.546Z,1.20
2023-03-01T18:40:53.093Z,1.40
2023-03-01T18:43:19.748Z,1.57
2023-03-01T18:45:46.483Z,1.40
2023-03-01T18:48:14.278Z,1.50
2023-03-01T18:50:41.570Z,1.50
2023-03-01T18:53:08.649Z,1.50
2023-03-01T18:55:39.266Z,1.43
2023-03-01T18:58:06.334Z,1.23
2023-03-01T19:00:33.718Z,1.50
2023-03-01T19:03:03.935Z,1.77
2023-03-01T19:05:30.844Z,1.80
2023-03-01T19:07:57.743Z,1.13
2023-03-01T19:10:24.919Z,1.67
2023-03-01T19:12:51.509Z,1.50
2023-03-01T19:15:18.293Z,1.53
2023-03-01T19:17:45.289Z,1.40
2023-03-01T19:20:12.802Z,1.60
2023-03-01T19:22:39.601Z,1.67
2023-03-01T19:25:06.842Z,1.27
2023-03-01T19:27:33.415Z,1.30
2023-03-01T19:29:59.961Z,1.50
2023-03-01T19:32:26.551Z,1.53
2023-03-01T19:34:53.218Z,1.60
2023-03-01T19:37:19.756Z,1.47
2023-03-01T19:39:47.999Z,1.70
2023-03-01T19:42:14.561Z,1.60
2023-03-01T19:44:41.470Z,1.77
2023-03-01T19:47:08.104Z,1.50
2023-03-01T19:49:37.350Z,1.87
2023-03-01T19:52:04.445Z,1.33
2023-03-01T19:54:31.085Z,2.10
2023-03-01T19:56:57.633Z,1.70
2023-03-01T19:59:25.416Z,1.80
2023-03-01T20:01:52.324Z,1.87
2023-03-01T20:04:19.186Z,1.90
2023-03-01T20:06:46.793Z,1.93
2023-03-01T20:09:21.347Z,1.60
2023-03-01T20:11:48.446Z,1.80
2023-03-01T20:14:15.038Z,1.73
2023-03-01T20:16:41.946Z,2.00
2023-03-01T20:19:08.648Z,2.00
2023-03-01T20:21:35.323Z,2.30
2023-03-01T20:24:02.305Z,2.40
2023-03-01T20:26:29.247Z,1.70
2023-03-01T20:28:57.199Z,2.07
2023-03-01T20:31:29.887Z,2.10
2023-03-01T20:33:57.761Z,2.03
2023-03-01T20:36:24.844Z,2.17
2023-03-01T20:38:54.880Z,2.00
2023-03-01T20:41:21.824Z,2.07
2023-03-01T20:43:54.239Z,2.33
2023-03-01T20:46:21.369Z,2.37
2023-03-01T20:48:47.987Z,2.20
2023-03-01T20:51:15.297Z,2.03
2023-03-01T20:53:42.198Z,2.00
2023-03-01T20:56:16.232Z,2.30
2023-03-01T20:58:44.286Z,1.97
2023-03-01T21:01:15.694Z,2.30
2023-03-01T21:03:42.385Z,2.10
2023-03-01T21:06:09.306Z,2.00
